sensor_id;sensor_type;location;lat;lon;timestamp;temperature;humidity
60848;DHT22;46681;47.696;9.140;2022-10-04T00:02:34;13.40;69.00
60848;DHT22;46681;47.696;9.140;2022-10-04T00:05:06;13.40;69.00
60848;DHT22;46681;47.696;9.140;2022-10-04T00:07:48;13.30;69.10
60848;DHT22;46681;47.696;9.140;2022-10-04T00:13:13;13.20;69.00
60848;DHT22;46681;47.696;9.140;2022-10-04T00:15:38;13.20;69.20
60848;DHT22;46681;47.696;9.140;2022-10-04T00:26:02;13.20;69.10
60848;DHT22;46681;47.696;9.140;2022-10-04T00:28:51;13.20;69.00
60848;DHT22;46681;47.696;9.140;2022-10-04T00:39:22;13.10;69.00
60848;DHT22;46681;47.696;9.140;2022-10-04T00:42:00;13.10;69.00
60848;DHT22;46681;47.696;9.140;2022-10-04T00:46:56;13.10;68.90
60848;DHT22;46681;47.696;9.140;2022-10-04T00:49:30;13.10;68.90
60848;DHT22;46681;47.696;9.140;2022-10-04T00:52:25;13.00;68.70
60848;DHT22;46681;47.696;9.140;2022-10-04T00:54:59;13.00;68.80
60848;DHT22;46681;47.696;9.140;2022-10-04T00:57:46;13.10;68.70
60848;DHT22;46681;47.696;9.140;2022-10-04T01:00:19;13.10;68.80
60848;DHT22;46681;47.696;9.140;2022-10-04T01:03:12;13.00;68.60
60848;DHT22;46681;47.696;9.140;2022-10-04T01:05:48;13.00;68.50
60848;DHT22;46681;47.696;9.140;2022-10-04T01:08:25;13.00;68.70
60848;DHT22;46681;47.696;9.140;2022-10-04T01:11:09;13.00;68.60
60848;DHT22;46681;47.696;9.140;2022-10-04T01:13:42;13.00;68.60
60848;DHT22;46681;47.696;9.140;2022-10-04T01:16:21;13.00;68.60
60848;DHT22;46681;47.696;9.140;2022-10-04T01:18:46;12.90;68.60
60848;DHT22;46681;47.696;9.140;2022-10-04T01:21:27;13.00;68.60
60848;DHT22;46681;47.696;9.140;2022-10-04T01:31:48;12.90;68.50
60848;DHT22;46681;47.696;9.140;2022-10-04T01:34:20;12.90;68.40
60848;DHT22;46681;47.696;9.140;2022-10-04T01:36:48;12.90;68.30
60848;DHT22;46681;47.696;9.140;2022-10-04T01:39:16;12.90;68.40
60848;DHT22;46681;47.696;9.140;2022-10-04T01:41:54;12.90;68.40
60848;DHT22;46681;47.696;9.140;2022-10-04T01:44:31;12.90;68.30
60848;DHT22;46681;47.696;9.140;2022-10-04T01:47:02;12.90;68.30
60848;DHT22;46681;47.696;9.140;2022-10-04T01:49:32;12.80;68.20
60848;DHT22;46681;47.696;9.140;2022-10-04T01:52:09;12.90;68.40
60848;DHT22;46681;47.696;9.140;2022-10-04T01:54:42;12.80;68.20
60848;DHT22;46681;47.696;9.140;2022-10-04T01:57:21;12.80;68.30
60848;DHT22;46681;47.696;9.140;2022-10-04T02:02:31;12.80;68.20
60848;DHT22;46681;47.696;9.140;2022-10-04T02:05:05;12.80;68.20
60848;DHT22;46681;47.696;9.140;2022-10-04T02:07:33;12.80;68.10
60848;DHT22;46681;47.696;9.140;2022-10-04T02:10:06;12.80;68.10
60848;DHT22;46681;47.696;9.140;2022-10-04T02:12:35;12.80;68.10
60848;DHT22;46681;47.696;9.140;2022-10-04T02:15:06;12.80;68.10
60848;DHT22;46681;47.696;9.140;2022-10-04T02:17:40;12.80;68.00
60848;DHT22;46681;47.696;9.140;2022-10-04T02:20:29;12.70;67.90
60848;DHT22;46681;47.696;9.140;2022-10-04T02:22:58;12.70;67.90
60848;DHT22;46681;47.696;9.140;2022-10-04T02:25:25;12.70;67.80
60848;DHT22;46681;47.696;9.140;2022-10-04T02:27:55;12.70;67.80
60848;DHT22;46681;47.696;9.140;2022-10-04T02:30:22;12.70;68.00
60848;DHT22;46681;47.696;9.140;2022-10-04T02:32:55;12.70;68.00
60848;DHT22;46681;47.696;9.140;2022-10-04T02:38:03;12.70;67.90
60848;DHT22;46681;47.696;9.140;2022-10-04T02:40:45;12.70;67.90
60848;DHT22;46681;47.696;9.140;2022-10-04T02:43:27;12.60;67.90
60848;DHT22;46681;47.696;9.140;2022-10-04T02:46:21;12.70;67.80
60848;DHT22;46681;47.696;9.140;2022-10-04T02:48:50;12.60;67.80
60848;DHT22;46681;47.696;9.140;2022-10-04T02:52:16;12.60;67.80
60848;DHT22;46681;47.696;9.140;2022-10-04T02:54:38;12.70;67.70
60848;DHT22;46681;47.696;9.140;2022-10-04T02:57:20;12.60;67.70
60848;DHT22;46681;47.696;9.140;2022-10-04T02:59:49;12.60;67.80
60848;DHT22;46681;47.696;9.140;2022-10-04T03:02:29;12.60;67.70
60848;DHT22;46681;47.696;9.140;2022-10-04T03:05:08;12.60;67.60
60848;DHT22;46681;47.696;9.140;2022-10-04T03:07:38;12.60;67.50
60848;DHT22;46681;47.696;9.140;2022-10-04T03:10:11;12.50;67.50
60848;DHT22;46681;47.696;9.140;2022-10-04T03:12:38;12.50;67.50
60848;DHT22;46681;47.696;9.140;2022-10-04T03:15:11;12.50;67.50
60848;DHT22;46681;47.696;9.140;2022-10-04T03:17:41;12.50;67.50
60848;DHT22;46681;47.696;9.140;2022-10-04T03:20:11;12.50;67.60
60848;DHT22;46681;47.696;9.140;2022-10-04T03:22:44;12.50;67.40
60848;DHT22;46681;47.696;9.140;2022-10-04T03:25:25;12.50;67.40
60848;DHT22;46681;47.696;9.140;2022-10-04T03:27:53;12.50;67.20
60848;DHT22;46681;47.696;9.140;2022-10-04T03:30:22;12.50;67.20
60848;DHT22;46681;47.696;9.140;2022-10-04T03:32:52;12.50;67.30
60848;DHT22;46681;47.696;9.140;2022-10-04T03:35:39;12.50;67.20
60848;DHT22;46681;47.696;9.140;2022-10-04T03:38:07;12.50;67.10
60848;DHT22;46681;47.696;9.140;2022-10-04T03:40:53;12.50;67.20
60848;DHT22;46681;47.696;9.140;2022-10-04T03:43:31;12.50;67.20
60848;DHT22;46681;47.696;9.140;2022-10-04T03:46:03;12.40;67.30
60848;DHT22;46681;47.696;9.140;2022-10-04T03:48:40;12.40;67.00
60848;DHT22;46681;47.696;9.140;2022-10-04T03:51:15;12.40;67.10
60848;DHT22;46681;47.696;9.140;2022-10-04T03:53:49;12.40;67.10
60848;DHT22;46681;47.696;9.140;2022-10-04T03:58:52;12.40;67.10
60848;DHT22;46681;47.696;9.140;2022-10-04T04:04:28;12.40;67.00
60848;DHT22;46681;47.696;9.140;2022-10-04T04:15:03;12.40;66.90
60848;DHT22;46681;47.696;9.140;2022-10-04T04:17:39;12.40;66.90
60848;DHT22;46681;47.696;9.140;2022-10-04T04:20:25;12.40;67.00
60848;DHT22;46681;47.696;9.140;2022-10-04T04:23:03;12.30;66.90
60848;DHT22;46681;47.696;9.140;2022-10-04T04:25:34;12.30;67.00
60848;DHT22;46681;47.696;9.140;2022-10-04T04:30:44;12.40;66.90
60848;DHT22;46681;47.696;9.140;2022-10-04T04:33:55;12.40;66.80
60848;DHT22;46681;47.696;9.140;2022-10-04T04:36:15;12.50;66.60
60848;DHT22;46681;47.696;9.140;2022-10-04T04:38:40;12.50;66.60
60848;DHT22;46681;47.696;9.140;2022-10-04T04:41:17;12.60;66.30
60848;DHT22;46681;47.696;9.140;2022-10-04T04:43:49;12.70;66.10
60848;DHT22;46681;47.696;9.140;2022-10-04T04:46:17;12.80;65.90
60848;DHT22;46681;47.696;9.140;2022-10-04T04:48:45;12.80;65.80
60848;DHT22;46681;47.696;9.140;2022-10-04T04:51:21;12.90;65.50
60848;DHT22;46681;47.696;9.140;2022-10-04T04:53:52;12.90;65.40
60848;DHT22;46681;47.696;9.140;2022-10-04T04:56:25;13.00;65.20
60848;DHT22;46681;47.696;9.140;2022-10-04T04:58:56;13.00;65.20
60848;DHT22;46681;47.696;9.140;2022-10-04T05:04:02;13.10;64.90
60848;DHT22;46681;47.696;9.140;2022-10-04T05:06:36;13.00;64.80
60848;DHT22;46681;47.696;9.140;2022-10-04T05:09:19;13.00;66.10
60848;DHT22;46681;47.696;9.140;2022-10-04T05:11:59;13.10;65.00
60848;DHT22;46681;47.696;9.140;2022-10-04T05:14:29;13.10;64.80
60848;DHT22;46681;47.696;9.140;2022-10-04T05:16:56;13.00;64.90
60848;DHT22;46681;47.696;9.140;2022-10-04T05:19:39;13.10;64.90
60848;DHT22;46681;47.696;9.140;2022-10-04T05:22:16;13.10;64.90
60848;DHT22;46681;47.696;9.140;2022-10-04T05:25:00;13.10;65.00
60848;DHT22;46681;47.696;9.140;2022-10-04T05:27:39;13.00;65.00
60848;DHT22;46681;47.696;9.140;2022-10-04T05:38:55;13.00;65.90
60848;DHT22;46681;47.696;9.140;2022-10-04T05:41:48;13.00;65.70
60848;DHT22;46681;47.696;9.140;2022-10-04T05:44:45;13.00;65.70
60848;DHT22;46681;47.696;9.140;2022-10-04T05:47:27;13.00;65.60
60848;DHT22;46681;47.696;9.140;2022-10-04T05:49:56;12.90;65.70
60848;DHT22;46681;47.696;9.140;2022-10-04T05:52:43;12.90;65.70
60848;DHT22;46681;47.696;9.140;2022-10-04T05:55:16;12.90;65.80
60848;DHT22;46681;47.696;9.140;2022-10-04T06:07:42;12.90;65.80
60848;DHT22;46681;47.696;9.140;2022-10-04T06:12:59;12.90;66.10
60848;DHT22;46681;47.696;9.140;2022-10-04T06:24:37;13.00;66.60
60848;DHT22;46681;47.696;9.140;2022-10-04T06:27:20;13.00;66.60
60848;DHT22;46681;47.696;9.140;2022-10-04T06:30:13;13.00;66.50
60848;DHT22;46681;47.696;9.140;2022-10-04T06:36:07;13.00;66.50
60848;DHT22;46681;47.696;9.140;2022-10-04T06:54:04;13.20;66.60
60848;DHT22;46681;47.696;9.140;2022-10-04T07:00:31;13.30;66.60
60848;DHT22;46681;47.696;9.140;2022-10-04T07:06:23;13.40;67.70
60848;DHT22;46681;47.696;9.140;2022-10-04T07:08:53;13.40;66.90
60848;DHT22;46681;47.696;9.140;2022-10-04T07:12:37;13.40;66.90
60848;DHT22;46681;47.696;9.140;2022-10-04T07:14:47;13.50;67.40
60848;DHT22;46681;47.696;9.140;2022-10-04T07:17:28;13.50;66.80
60848;DHT22;46681;47.696;9.140;2022-10-04T07:19:56;13.60;66.70
60848;DHT22;46681;47.696;9.140;2022-10-04T07:22:47;13.60;66.80
60848;DHT22;46681;47.696;9.140;2022-10-04T07:25:50;13.60;66.80
60848;DHT22;46681;47.696;9.140;2022-10-04T07:28:26;13.60;66.60
60848;DHT22;46681;47.696;9.140;2022-10-04T07:31:08;13.60;66.70
60848;DHT22;46681;47.696;9.140;2022-10-04T07:33:48;13.70;66.70
60848;DHT22;46681;47.696;9.140;2022-10-04T07:39:27;13.80;66.50
60848;DHT22;46681;47.696;9.140;2022-10-04T07:45:41;13.80;66.50
60848;DHT22;46681;47.696;9.140;2022-10-04T07:48:15;13.80;66.50
60848;DHT22;46681;47.696;9.140;2022-10-04T07:53:57;13.90;66.50
60848;DHT22;46681;47.696;9.140;2022-10-04T07:57:06;13.90;66.50
60848;DHT22;46681;47.696;9.140;2022-10-04T08:05:21;14.00;66.50
60848;DHT22;46681;47.696;9.140;2022-10-04T08:11:14;14.00;66.40
60848;DHT22;46681;47.696;9.140;2022-10-04T08:41:26;14.40;66.70
60848;DHT22;46681;47.696;9.140;2022-10-04T08:44:31;14.40;66.80
60848;DHT22;46681;47.696;9.140;2022-10-04T08:55:46;14.50;66.50
60848;DHT22;46681;47.696;9.140;2022-10-04T09:53:44;15.20;65.70
60848;DHT22;46681;47.696;9.140;2022-10-04T10:06:06;15.30;65.50
60848;DHT22;46681;47.696;9.140;2022-10-04T10:11:50;15.40;65.40
60848;DHT22;46681;47.696;9.140;2022-10-04T10:17:14;15.40;65.40
60848;DHT22;46681;47.696;9.140;2022-10-04T10:41:29;15.70;65.00
60848;DHT22;46681;47.696;9.140;2022-10-04T10:45:00;15.80;64.90
60848;DHT22;46681;47.696;9.140;2022-10-04T11:08:44;16.10;64.80
60848;DHT22;46681;47.696;9.140;2022-10-04T11:24:11;16.20;64.70
60848;DHT22;46681;47.696;9.140;2022-10-04T11:26:53;16.20;64.80
60848;DHT22;46681;47.696;9.140;2022-10-04T11:35:37;16.30;64.70
60848;DHT22;46681;47.696;9.140;2022-10-04T11:41:49;16.30;64.60
60848;DHT22;46681;47.696;9.140;2022-10-04T11:44:51;16.30;64.60
60848;DHT22;46681;47.696;9.140;2022-10-04T12:02:25;16.50;64.40
60848;DHT22;46681;47.696;9.140;2022-10-04T12:23:01;16.80;64.00
60848;DHT22;46681;47.696;9.140;2022-10-04T12:31:31;16.90;63.20
60848;DHT22;46681;47.696;9.140;2022-10-04T12:34:25;17.00;62.80
60848;DHT22;46681;47.696;9.140;2022-10-04T12:43:27;17.10;62.40
60848;DHT22;46681;47.696;9.140;2022-10-04T12:49:17;17.20;62.60
60848;DHT22;46681;47.696;9.140;2022-10-04T12:52:17;17.30;62.40
60848;DHT22;46681;47.696;9.140;2022-10-04T13:00:39;17.40;62.20
60848;DHT22;46681;47.696;9.140;2022-10-04T13:09:43;17.60;62.40
60848;DHT22;46681;47.696;9.140;2022-10-04T13:15:16;17.70;62.20
60848;DHT22;46681;47.696;9.140;2022-10-04T13:18:02;17.90;62.90
60848;DHT22;46681;47.696;9.140;2022-10-04T13:21:08;18.00;62.70
60848;DHT22;46681;47.696;9.140;2022-10-04T13:27:06;18.90;62.40
60848;DHT22;46681;47.696;9.140;2022-10-04T13:53:23;21.10;56.70
60848;DHT22;46681;47.696;9.140;2022-10-04T14:06:13;22.30;54.10
60848;DHT22;46681;47.696;9.140;2022-10-04T14:29:02;22.90;52.20
60848;DHT22;46681;47.696;9.140;2022-10-04T14:46:42;20.60;54.10
60848;DHT22;46681;47.696;9.140;2022-10-04T14:55:54;20.00;54.00
60848;DHT22;46681;47.696;9.140;2022-10-04T15:01:40;19.80;55.10
60848;DHT22;46681;47.696;9.140;2022-10-04T15:07:34;19.50;55.40
60848;DHT22;46681;47.696;9.140;2022-10-04T15:22:37;18.90;56.70
60848;DHT22;46681;47.696;9.140;2022-10-04T15:25:44;18.80;57.10
60848;DHT22;46681;47.696;9.140;2022-10-04T15:28:38;18.70;57.00
60848;DHT22;46681;47.696;9.140;2022-10-04T15:37:54;18.40;57.40
60848;DHT22;46681;47.696;9.140;2022-10-04T15:40:57;18.30;57.80
60848;DHT22;46681;47.696;9.140;2022-10-04T15:47:10;18.20;58.20
60848;DHT22;46681;47.696;9.140;2022-10-04T15:58:44;17.90;58.80
60848;DHT22;46681;47.696;9.140;2022-10-04T16:01:46;17.90;59.20
60848;DHT22;46681;47.696;9.140;2022-10-04T16:37:38;17.30;62.40
60848;DHT22;46681;47.696;9.140;2022-10-04T16:43:57;17.40;62.60
60848;DHT22;46681;47.696;9.140;2022-10-04T16:46:41;17.50;63.00
60848;DHT22;46681;47.696;9.140;2022-10-04T16:49:30;17.50;63.00
60848;DHT22;46681;47.696;9.140;2022-10-04T17:12:55;17.20;63.00
60848;DHT22;46681;47.696;9.140;2022-10-04T17:43:06;16.60;64.00
60848;DHT22;46681;47.696;9.140;2022-10-04T17:51:39;16.40;64.90
60848;DHT22;46681;47.696;9.140;2022-10-04T18:00:08;16.20;64.20
60848;DHT22;46681;47.696;9.140;2022-10-04T18:05:53;16.10;64.10
60848;DHT22;46681;47.696;9.140;2022-10-04T18:11:44;16.00;64.50
60848;DHT22;46681;47.696;9.140;2022-10-04T18:17:44;15.90;64.60
60848;DHT22;46681;47.696;9.140;2022-10-04T18:20:29;15.80;64.60
60848;DHT22;46681;47.696;9.140;2022-10-04T18:23:30;15.80;64.80
60848;DHT22;46681;47.696;9.140;2022-10-04T18:28:49;15.70;64.80
60848;DHT22;46681;47.696;9.140;2022-10-04T18:31:39;15.70;65.30
60848;DHT22;46681;47.696;9.140;2022-10-04T18:34:28;15.60;65.10
60848;DHT22;46681;47.696;9.140;2022-10-04T18:37:20;15.60;65.20
60848;DHT22;46681;47.696;9.140;2022-10-04T18:40:20;15.50;64.90
60848;DHT22;46681;47.696;9.140;2022-10-04T18:42:56;15.50;65.20
60848;DHT22;46681;47.696;9.140;2022-10-04T18:45:29;15.40;65.20
60848;DHT22;46681;47.696;9.140;2022-10-04T18:47:59;15.40;65.20
60848;DHT22;46681;47.696;9.140;2022-10-04T18:50:58;15.30;65.30
60848;DHT22;46681;47.696;9.140;2022-10-04T18:53:45;15.30;65.40
60848;DHT22;46681;47.696;9.140;2022-10-04T18:56:25;15.30;65.30
60848;DHT22;46681;47.696;9.140;2022-10-04T18:58:59;15.20;66.20
60848;DHT22;46681;47.696;9.140;2022-10-04T19:02:11;15.20;65.80
60848;DHT22;46681;47.696;9.140;2022-10-04T19:05:04;15.20;65.80
60848;DHT22;46681;47.696;9.140;2022-10-04T19:07:54;15.10;65.80
60848;DHT22;46681;47.696;9.140;2022-10-04T19:10:47;15.10;65.80
60848;DHT22;46681;47.696;9.140;2022-10-04T19:19:39;15.00;65.80
60848;DHT22;46681;47.696;9.140;2022-10-04T19:22:31;14.90;65.80
60848;DHT22;46681;47.696;9.140;2022-10-04T19:25:32;14.90;65.90
60848;DHT22;46681;47.696;9.140;2022-10-04T19:28:18;14.90;65.80
60848;DHT22;46681;47.696;9.140;2022-10-04T19:31:20;14.90;65.80
60848;DHT22;46681;47.696;9.140;2022-10-04T19:34:02;14.80;65.80
60848;DHT22;46681;47.696;9.140;2022-10-04T19:36:57;14.80;65.80
60848;DHT22;46681;47.696;9.140;2022-10-04T19:42:40;14.70;65.70
60848;DHT22;46681;47.696;9.140;2022-10-04T19:48:27;14.60;65.80
60848;DHT22;46681;47.696;9.140;2022-10-04T19:54:06;14.60;66.00
60848;DHT22;46681;47.696;9.140;2022-10-04T19:56:46;14.60;66.00
60848;DHT22;46681;47.696;9.140;2022-10-04T19:59:43;14.50;66.00
60848;DHT22;46681;47.696;9.140;2022-10-04T20:02:15;14.50;66.00
60848;DHT22;46681;47.696;9.140;2022-10-04T20:04:41;14.50;66.00
60848;DHT22;46681;47.696;9.140;2022-10-04T20:07:17;14.40;66.00
60848;DHT22;46681;47.696;9.140;2022-10-04T20:10:27;14.40;66.10
60848;DHT22;46681;47.696;9.140;2022-10-04T20:13:19;14.40;66.00
60848;DHT22;46681;47.696;9.140;2022-10-04T20:15:54;14.40;66.10
60848;DHT22;46681;47.696;9.140;2022-10-04T20:28:56;14.20;66.10
60848;DHT22;46681;47.696;9.140;2022-10-04T20:34:50;14.20;66.40
60848;DHT22;46681;47.696;9.140;2022-10-04T20:37:08;14.20;67.20
60848;DHT22;46681;47.696;9.140;2022-10-04T20:42:34;14.10;66.60
60848;DHT22;46681;47.696;9.140;2022-10-04T20:47:34;14.10;66.50
60848;DHT22;46681;47.696;9.140;2022-10-04T20:50:20;14.10;66.50
60848;DHT22;46681;47.696;9.140;2022-10-04T20:52:52;14.00;66.40
60848;DHT22;46681;47.696;9.140;2022-10-04T20:55:32;14.00;66.40
60848;DHT22;46681;47.696;9.140;2022-10-04T21:00:50;14.00;66.30
60848;DHT22;46681;47.696;9.140;2022-10-04T21:03:22;13.90;66.20
60848;DHT22;46681;47.696;9.140;2022-10-04T21:06:10;13.90;66.20
60848;DHT22;46681;47.696;9.140;2022-10-04T21:08:36;13.90;66.20
60848;DHT22;46681;47.696;9.140;2022-10-04T21:13:57;13.90;66.20
60848;DHT22;46681;47.696;9.140;2022-10-04T21:19:48;13.80;66.10
60848;DHT22;46681;47.696;9.140;2022-10-04T21:27:35;13.70;66.20
60848;DHT22;46681;47.696;9.140;2022-10-04T21:30:15;13.70;66.10
60848;DHT22;46681;47.696;9.140;2022-10-04T21:32:45;13.70;66.00
60848;DHT22;46681;47.696;9.140;2022-10-04T21:35:13;13.70;66.10
60848;DHT22;46681;47.696;9.140;2022-10-04T21:37:41;13.70;66.00
60848;DHT22;46681;47.696;9.140;2022-10-04T21:40:08;13.70;66.10
60848;DHT22;46681;47.696;9.140;2022-10-04T21:42:35;13.70;66.00
60848;DHT22;46681;47.696;9.140;2022-10-04T21:45:03;13.60;65.90
60848;DHT22;46681;47.696;9.140;2022-10-04T21:47:30;13.60;66.00
60848;DHT22;46681;47.696;9.140;2022-10-04T21:49:56;13.70;66.10
60848;DHT22;46681;47.696;9.140;2022-10-04T21:52:25;13.60;65.90
60848;DHT22;46681;47.696;9.140;2022-10-04T21:54:50;13.60;66.10
60848;DHT22;46681;47.696;9.140;2022-10-04T21:57:17;13.60;66.00
60848;DHT22;46681;47.696;9.140;2022-10-04T21:59:50;13.60;66.00
60848;DHT22;46681;47.696;9.140;2022-10-04T22:02:16;13.60;66.00
60848;DHT22;46681;47.696;9.140;2022-10-04T22:04:45;13.60;66.20
60848;DHT22;46681;47.696;9.140;2022-10-04T22:07:10;13.60;66.10
60848;DHT22;46681;47.696;9.140;2022-10-04T22:09:41;13.60;66.10
60848;DHT22;46681;47.696;9.140;2022-10-04T22:12:08;13.60;66.20
60848;DHT22;46681;47.696;9.140;2022-10-04T22:14:34;13.60;66.20
60848;DHT22;46681;47.696;9.140;2022-10-04T22:17:02;13.60;66.30
60848;DHT22;46681;47.696;9.140;2022-10-04T22:19:28;13.60;66.30
60848;DHT22;46681;47.696;9.140;2022-10-04T22:21:55;13.60;66.20
60848;DHT22;46681;47.696;9.140;2022-10-04T22:24:21;13.60;66.30
60848;DHT22;46681;47.696;9.140;2022-10-04T22:26:48;13.70;66.40
60848;DHT22;46681;47.696;9.140;2022-10-04T22:29:16;13.60;66.30
60848;DHT22;46681;47.696;9.140;2022-10-04T22:31:50;13.60;66.60
60848;DHT22;46681;47.696;9.140;2022-10-04T22:34:21;13.70;66.40
60848;DHT22;46681;47.696;9.140;2022-10-04T22:36:53;13.60;66.40
60848;DHT22;46681;47.696;9.140;2022-10-04T22:39:20;13.70;66.50
60848;DHT22;46681;47.696;9.140;2022-10-04T22:41:59;13.70;66.50
60848;DHT22;46681;47.696;9.140;2022-10-04T22:44:36;13.70;66.50
60848;DHT22;46681;47.696;9.140;2022-10-04T22:47:15;13.70;66.50
60848;DHT22;46681;47.696;9.140;2022-10-04T22:49:47;13.70;66.60
60848;DHT22;46681;47.696;9.140;2022-10-04T22:52:23;13.70;66.60
60848;DHT22;46681;47.696;9.140;2022-10-04T22:54:56;13.70;66.50
60848;DHT22;46681;47.696;9.140;2022-10-04T22:57:24;13.70;66.60
60848;DHT22;46681;47.696;9.140;2022-10-04T22:59:50;13.70;66.60
60848;DHT22;46681;47.696;9.140;2022-10-04T23:02:29;13.70;66.70
60848;DHT22;46681;47.696;9.140;2022-10-04T23:04:59;13.70;66.70
60848;DHT22;46681;47.696;9.140;2022-10-04T23:07:26;13.80;66.70
60848;DHT22;46681;47.696;9.140;2022-10-04T23:09:53;13.80;66.70
60848;DHT22;46681;47.696;9.140;2022-10-04T23:12:28;13.80;66.70
60848;DHT22;46681;47.696;9.140;2022-10-04T23:14:54;13.80;66.70
60848;DHT22;46681;47.696;9.140;2022-10-04T23:17:29;13.80;66.80
60848;DHT22;46681;47.696;9.140;2022-10-04T23:20:02;13.80;66.80
60848;DHT22;46681;47.696;9.140;2022-10-04T23:22:29;13.80;66.80
60848;DHT22;46681;47.696;9.140;2022-10-04T23:24:56;13.80;66.80
60848;DHT22;46681;47.696;9.140;2022-10-04T23:27:25;13.80;66.80
60848;DHT22;46681;47.696;9.140;2022-10-04T23:30:00;13.80;66.80
60848;DHT22;46681;47.696;9.140;2022-10-04T23:32:31;13.80;66.90
60848;DHT22;46681;47.696;9.140;2022-10-04T23:34:58;13.80;66.80
60848;DHT22;46681;47.696;9.140;2022-10-04T23:37:30;13.80;66.80
60848;DHT22;46681;47.696;9.140;2022-10-04T23:40:01;13.80;66.80
60848;DHT22;46681;47.696;9.140;2022-10-04T23:42:32;13.80;66.90
60848;DHT22;46681;47.696;9.140;2022-10-04T23:45:01;13.80;66.90
60848;DHT22;46681;47.696;9.140;2022-10-04T23:47:35;13.80;66.90
60848;DHT22;46681;47.696;9.140;2022-10-04T23:52:54;13.80;66.90
60848;DHT22;46681;47.696;9.140;2022-10-04T23:55:28;13.90;66.90
60848;DHT22;46681;47.696;9.140;2022-10-04T23:57:58;13.80;66.90
